sensor_id;sensor_type;location;lat;lon;timestamp;pressure;altitude;pressure_sealevel;temperature;humidity
43683;BME280;29285;52.128;21.060;2023-05-25T00:00:48;100692.48;;;14.79;95.69
43683;BME280;29285;52.128;21.060;2023-05-25T00:06:06;100687.22;;;14.72;95.86
43683;BME280;29285;52.128;21.060;2023-05-25T00:11:07;100692.83;;;14.65;96.06
43683;BME280;29285;52.128;21.060;2023-05-25T00:16:09;100687.98;;;14.57;96.18
43683;BME280;29285;52.128;21.060;2023-05-25T00:21:10;100690.58;;;14.51;96.35
43683;BME280;29285;52.128;21.060;2023-05-25T00:26:11;100701.53;;;14.46;96.51
43683;BME280;29285;52.128;21.060;2023-05-25T00:31:12;100699.26;;;14.40;96.66
43683;BME280;29285;52.128;21.060;2023-05-25T00:36:13;100698.63;;;14.37;96.85
43683;BME280;29285;52.128;21.060;2023-05-25T00:41:16;100697.13;;;14.34;97.12
43683;BME280;29285;52.128;21.060;2023-05-25T00:46:18;100698.21;;;14.33;97.35
43683;BME280;29285;52.128;21.060;2023-05-25T00:51:20;100700.08;;;14.28;97.58
43683;BME280;29285;52.128;21.060;2023-05-25T00:56:25;100705.88;;;14.26;97.88
43683;BME280;29285;52.128;21.060;2023-05-25T01:01:30;100714.36;;;14.21;98.06
43683;BME280;29285;52.128;21.060;2023-05-25T01:06:35;100715.22;;;14.16;98.14
43683;BME280;29285;52.128;21.060;2023-05-25T01:11:41;100716.58;;;14.10;98.46
43683;BME280;29285;52.128;21.060;2023-05-25T01:16:43;100716.51;;;14.06;98.56
43683;BME280;29285;52.128;21.060;2023-05-25T01:27:17;100710.71;;;14.00;99.13
43683;BME280;29285;52.128;21.060;2023-05-25T01:32:22;100712.83;;;13.99;99.45
43683;BME280;29285;52.128;21.060;2023-05-25T01:37:23;100709.66;;;14.00;99.65
43683;BME280;29285;52.128;21.060;2023-05-25T01:42:26;100715.30;;;14.05;99.98
43683;BME280;29285;52.128;21.060;2023-05-25T01:52:35;100717.23;;;14.05;100.00
43683;BME280;29285;52.128;21.060;2023-05-25T01:57:41;100717.52;;;14.07;100.00
43683;BME280;29285;52.128;21.060;2023-05-25T02:02:44;100713.14;;;14.07;100.00
43683;BME280;29285;52.128;21.060;2023-05-25T02:07:46;100714.52;;;14.01;100.00
43683;BME280;29285;52.128;21.060;2023-05-25T02:12:47;100711.17;;;14.02;100.00
43683;BME280;29285;52.128;21.060;2023-05-25T02:17:48;100706.23;;;14.05;100.00
43683;BME280;29285;52.128;21.060;2023-05-25T02:22:50;100705.68;;;14.06;100.00
43683;BME280;29285;52.128;21.060;2023-05-25T02:27:51;100709.38;;;14.04;100.00
43683;BME280;29285;52.128;21.060;2023-05-25T02:32:52;100713.19;;;14.06;100.00
43683;BME280;29285;52.128;21.060;2023-05-25T02:37:53;100718.97;;;14.05;100.00
43683;BME280;29285;52.128;21.060;2023-05-25T02:42:54;100725.02;;;13.99;100.00
43683;BME280;29285;52.128;21.060;2023-05-25T02:47:55;100724.27;;;13.95;100.00
43683;BME280;29285;52.128;21.060;2023-05-25T02:52:56;100727.91;;;13.87;100.00
43683;BME280;29285;52.128;21.060;2023-05-25T02:57:57;100728.27;;;13.88;100.00
43683;BME280;29285;52.128;21.060;2023-05-25T03:03:00;100727.67;;;13.91;100.00
43683;BME280;29285;52.128;21.060;2023-05-25T03:08:01;100727.42;;;13.86;100.00
43683;BME280;29285;52.128;21.060;2023-05-25T03:13:02;100725.04;;;13.77;100.00
43683;BME280;29285;52.128;21.060;2023-05-25T03:18:03;100726.10;;;13.75;100.00
43683;BME280;29285;52.128;21.060;2023-05-25T03:23:04;100725.65;;;13.72;100.00
43683;BME280;29285;52.128;21.060;2023-05-25T03:28:05;100731.21;;;13.66;100.00
43683;BME280;29285;52.128;21.060;2023-05-25T03:33:06;100742.44;;;13.70;100.00
43683;BME280;29285;52.128;21.060;2023-05-25T03:38:07;100747.14;;;13.71;100.00
43683;BME280;29285;52.128;21.060;2023-05-25T03:43:08;100755.66;;;13.72;100.00
43683;BME280;29285;52.128;21.060;2023-05-25T03:48:09;100763.67;;;13.72;100.00
43683;BME280;29285;52.128;21.060;2023-05-25T03:53:10;100766.33;;;13.71;100.00
43683;BME280;29285;52.128;21.060;2023-05-25T03:58:14;100775.58;;;13.70;100.00
43683;BME280;29285;52.128;21.060;2023-05-25T04:03:18;100778.17;;;13.71;100.00
43683;BME280;29285;52.128;21.060;2023-05-25T04:08:20;100769.71;;;13.75;100.00
43683;BME280;29285;52.128;21.060;2023-05-25T04:13:22;100774.31;;;13.72;100.00
43683;BME280;29285;52.128;21.060;2023-05-25T04:18:23;100783.38;;;13.71;100.00
43683;BME280;29285;52.128;21.060;2023-05-25T04:23:24;100783.10;;;13.77;100.00
43683;BME280;29285;52.128;21.060;2023-05-25T04:28:25;100788.27;;;13.79;100.00
43683;BME280;29285;52.128;21.060;2023-05-25T04:33:28;100788.60;;;13.80;100.00
43683;BME280;29285;52.128;21.060;2023-05-25T04:38:29;100780.02;;;13.81;100.00
43683;BME280;29285;52.128;21.060;2023-05-25T04:43:31;100781.37;;;13.83;100.00
43683;BME280;29285;52.128;21.060;2023-05-25T04:48:32;100778.75;;;13.84;100.00
43683;BME280;29285;52.128;21.060;2023-05-25T04:53:34;100784.62;;;13.87;100.00
43683;BME280;29285;52.128;21.060;2023-05-25T04:58:37;100786.91;;;13.93;100.00
43683;BME280;29285;52.128;21.060;2023-05-25T05:03:39;100790.27;;;14.00;100.00
43683;BME280;29285;52.128;21.060;2023-05-25T05:08:40;100789.92;;;13.99;100.00
43683;BME280;29285;52.128;21.060;2023-05-25T05:13:41;100793.41;;;13.99;100.00
43683;BME280;29285;52.128;21.060;2023-05-25T05:18:42;100794.09;;;14.00;100.00
43683;BME280;29285;52.128;21.060;2023-05-25T05:23:43;100800.52;;;14.16;100.00
43683;BME280;29285;52.128;21.060;2023-05-25T05:28:44;100811.00;;;14.23;100.00
43683;BME280;29285;52.128;21.060;2023-05-25T05:33:46;100811.44;;;14.20;100.00
43683;BME280;29285;52.128;21.060;2023-05-25T05:38:47;100812.64;;;14.20;100.00
43683;BME280;29285;52.128;21.060;2023-05-25T05:43:48;100812.63;;;14.21;100.00
43683;BME280;29285;52.128;21.060;2023-05-25T05:48:49;100816.54;;;14.18;100.00
43683;BME280;29285;52.128;21.060;2023-05-25T05:53:50;100822.11;;;14.18;100.00
43683;BME280;29285;52.128;21.060;2023-05-25T05:58:51;100823.93;;;14.22;100.00
43683;BME280;29285;52.128;21.060;2023-05-25T06:03:53;100822.57;;;14.28;100.00
43683;BME280;29285;52.128;21.060;2023-05-25T06:08:55;100824.09;;;14.30;100.00
43683;BME280;29285;52.128;21.060;2023-05-25T06:13:56;100830.45;;;14.35;100.00
43683;BME280;29285;52.128;21.060;2023-05-25T06:18:57;100838.06;;;14.37;100.00
43683;BME280;29285;52.128;21.060;2023-05-25T06:23:58;100844.81;;;14.40;100.00
43683;BME280;29285;52.128;21.060;2023-05-25T06:28:59;100856.52;;;14.39;100.00
43683;BME280;29285;52.128;21.060;2023-05-25T06:34:00;100857.93;;;14.38;100.00
43683;BME280;29285;52.128;21.060;2023-05-25T06:39:01;100863.63;;;14.41;100.00
43683;BME280;29285;52.128;21.060;2023-05-25T06:44:02;100868.63;;;14.45;100.00
43683;BME280;29285;52.128;21.060;2023-05-25T06:49:04;100870.13;;;14.47;100.00
43683;BME280;29285;52.128;21.060;2023-05-25T06:54:05;100862.55;;;14.50;100.00
43683;BME280;29285;52.128;21.060;2023-05-25T06:59:08;100860.79;;;14.50;100.00
43683;BME280;29285;52.128;21.060;2023-05-25T07:04:09;100861.61;;;14.60;100.00
43683;BME280;29285;52.128;21.060;2023-05-25T07:09:11;100867.08;;;14.72;100.00
43683;BME280;29285;52.128;21.060;2023-05-25T07:14:13;100867.66;;;14.78;100.00
43683;BME280;29285;52.128;21.060;2023-05-25T07:19:14;100862.86;;;14.82;100.00
43683;BME280;29285;52.128;21.060;2023-05-25T07:24:15;100867.51;;;14.85;100.00
43683;BME280;29285;52.128;21.060;2023-05-25T07:29:18;100856.75;;;14.88;100.00
43683;BME280;29285;52.128;21.060;2023-05-25T07:34:19;100859.92;;;14.94;100.00
43683;BME280;29285;52.128;21.060;2023-05-25T07:39:20;100863.77;;;15.08;100.00
43683;BME280;29285;52.128;21.060;2023-05-25T07:44:21;100864.52;;;15.12;100.00
43683;BME280;29285;52.128;21.060;2023-05-25T07:49:22;100865.45;;;15.17;100.00
43683;BME280;29285;52.128;21.060;2023-05-25T07:54:23;100863.14;;;15.18;100.00
43683;BME280;29285;52.128;21.060;2023-05-25T07:59:24;100863.38;;;15.23;100.00
43683;BME280;29285;52.128;21.060;2023-05-25T08:04:26;100863.38;;;15.29;100.00
43683;BME280;29285;52.128;21.060;2023-05-25T08:09:27;100859.16;;;15.36;100.00
43683;BME280;29285;52.128;21.060;2023-05-25T08:14:28;100850.65;;;15.47;100.00
43683;BME280;29285;52.128;21.060;2023-05-25T08:19:30;100858.85;;;15.66;100.00
43683;BME280;29285;52.128;21.060;2023-05-25T08:24:32;100860.61;;;15.78;100.00
43683;BME280;29285;52.128;21.060;2023-05-25T08:29:33;100862.86;;;15.90;100.00
43683;BME280;29285;52.128;21.060;2023-05-25T08:34:34;100864.66;;;16.02;100.00
43683;BME280;29285;52.128;21.060;2023-05-25T08:39:35;100859.98;;;16.18;100.00
43683;BME280;29285;52.128;21.060;2023-05-25T08:44:37;100860.83;;;16.35;100.00
43683;BME280;29285;52.128;21.060;2023-05-25T08:49:39;100860.23;;;16.54;100.00
43683;BME280;29285;52.128;21.060;2023-05-25T08:54:45;100861.54;;;16.73;100.00
43683;BME280;29285;52.128;21.060;2023-05-25T09:00:02;100872.13;;;16.71;100.00
43683;BME280;29285;52.128;21.060;2023-05-25T09:05:04;100866.42;;;16.74;100.00
43683;BME280;29285;52.128;21.060;2023-05-25T09:10:06;100872.83;;;16.76;100.00
43683;BME280;29285;52.128;21.060;2023-05-25T09:15:10;100867.81;;;16.74;100.00
43683;BME280;29285;52.128;21.060;2023-05-25T09:20:11;100863.53;;;16.71;100.00
43683;BME280;29285;52.128;21.060;2023-05-25T09:25:16;100865.17;;;16.69;100.00
43683;BME280;29285;52.128;21.060;2023-05-25T09:30:19;100870.46;;;16.79;100.00
43683;BME280;29285;52.128;21.060;2023-05-25T09:35:20;100872.70;;;16.86;100.00
43683;BME280;29285;52.128;21.060;2023-05-25T09:40:25;100877.79;;;16.96;100.00
43683;BME280;29285;52.128;21.060;2023-05-25T09:45:26;100881.42;;;16.97;100.00
43683;BME280;29285;52.128;21.060;2023-05-25T09:50:30;100877.48;;;17.00;100.00
43683;BME280;29285;52.128;21.060;2023-05-25T09:55:32;100874.76;;;17.02;100.00
43683;BME280;29285;52.128;21.060;2023-05-25T10:00:33;100877.45;;;17.06;100.00
43683;BME280;29285;52.128;21.060;2023-05-25T10:05:34;100877.92;;;17.13;100.00
43683;BME280;29285;52.128;21.060;2023-05-25T10:10:35;100880.69;;;17.24;100.00
43683;BME280;29285;52.128;21.060;2023-05-25T10:15:39;100884.14;;;17.30;100.00
43683;BME280;29285;52.128;21.060;2023-05-25T10:20:42;100886.68;;;17.39;100.00
43683;BME280;29285;52.128;21.060;2023-05-25T10:25:47;100886.96;;;17.45;100.00
43683;BME280;29285;52.128;21.060;2023-05-25T10:30:51;100880.42;;;17.57;100.00
43683;BME280;29285;52.128;21.060;2023-05-25T10:35:54;100875.70;;;17.75;100.00
43683;BME280;29285;52.128;21.060;2023-05-25T10:40:57;100864.93;;;17.96;100.00
43683;BME280;29285;52.128;21.060;2023-05-25T10:45:59;100857.73;;;18.33;100.00
43683;BME280;29285;52.128;21.060;2023-05-25T10:51:00;100849.73;;;18.86;100.00
43683;BME280;29285;52.128;21.060;2023-05-25T10:56:04;100849.73;;;19.40;100.00
43683;BME280;29285;52.128;21.060;2023-05-25T11:01:07;100853.40;;;19.80;100.00
43683;BME280;29285;52.128;21.060;2023-05-25T11:06:15;100853.48;;;20.09;100.00
43683;BME280;29285;52.128;21.060;2023-05-25T11:11:16;100847.45;;;20.35;100.00
43683;BME280;29285;52.128;21.060;2023-05-25T11:16:22;100839.42;;;20.73;100.00
43683;BME280;29285;52.128;21.060;2023-05-25T11:26:51;100838.27;;;21.54;100.00
43683;BME280;29285;52.128;21.060;2023-05-25T11:31:54;100836.23;;;21.98;100.00
43683;BME280;29285;52.128;21.060;2023-05-25T11:36:59;100828.40;;;22.21;100.00
43683;BME280;29285;52.128;21.060;2023-05-25T11:42:04;100831.00;;;22.22;100.00
43683;BME280;29285;52.128;21.060;2023-05-25T11:47:12;100830.85;;;22.22;100.00
43683;BME280;29285;52.128;21.060;2023-05-25T11:52:16;100825.35;;;22.22;100.00
43683;BME280;29285;52.128;21.060;2023-05-25T11:57:19;100829.00;;;21.97;100.00
43683;BME280;29285;52.128;21.060;2023-05-25T12:02:22;100829.90;;;21.72;100.00
43683;BME280;29285;52.128;21.060;2023-05-25T12:07:24;100822.92;;;21.43;100.00
43683;BME280;29285;52.128;21.060;2023-05-25T12:12:26;100821.65;;;21.70;100.00
43683;BME280;29285;52.128;21.060;2023-05-25T12:17:28;100812.29;;;22.09;100.00
43683;BME280;29285;52.128;21.060;2023-05-25T12:22:31;100811.59;;;22.25;100.00
43683;BME280;29285;52.128;21.060;2023-05-25T12:27:33;100804.39;;;22.30;100.00
43683;BME280;29285;52.128;21.060;2023-05-25T12:32:34;100795.71;;;22.64;100.00
43683;BME280;29285;52.128;21.060;2023-05-25T12:38:08;100797.06;;;23.04;100.00
43683;BME280;29285;52.128;21.060;2023-05-25T12:43:10;100796.77;;;23.32;100.00
43683;BME280;29285;52.128;21.060;2023-05-25T12:48:11;100788.38;;;23.62;100.00
43683;BME280;29285;52.128;21.060;2023-05-25T12:53:13;100784.00;;;23.86;100.00
43683;BME280;29285;52.128;21.060;2023-05-25T12:58:26;100773.89;;;24.05;100.00
43683;BME280;29285;52.128;21.060;2023-05-25T13:03:27;100768.40;;;24.22;100.00
43683;BME280;29285;52.128;21.060;2023-05-25T13:08:28;100765.51;;;24.20;100.00
43683;BME280;29285;52.128;21.060;2023-05-25T13:13:29;100754.81;;;24.18;100.00
43683;BME280;29285;52.128;21.060;2023-05-25T13:18:31;100750.74;;;24.42;100.00
43683;BME280;29285;52.128;21.060;2023-05-25T13:23:32;100746.28;;;24.61;100.00
43683;BME280;29285;52.128;21.060;2023-05-25T13:28:33;100740.58;;;24.67;100.00
43683;BME280;29285;52.128;21.060;2023-05-25T13:33:35;100732.58;;;24.56;100.00
43683;BME280;29285;52.128;21.060;2023-05-25T13:38:36;100728.97;;;24.60;100.00
43683;BME280;29285;52.128;21.060;2023-05-25T13:43:37;100721.30;;;24.63;100.00
43683;BME280;29285;52.128;21.060;2023-05-25T13:48:39;100722.49;;;24.69;100.00
43683;BME280;29285;52.128;21.060;2023-05-25T13:53:41;100708.96;;;24.86;100.00
43683;BME280;29285;52.128;21.060;2023-05-25T13:58:42;100711.11;;;24.88;100.00
43683;BME280;29285;52.128;21.060;2023-05-25T14:03:46;100710.98;;;24.71;100.00
43683;BME280;29285;52.128;21.060;2023-05-25T14:08:47;100712.92;;;24.48;100.00
43683;BME280;29285;52.128;21.060;2023-05-25T14:13:49;100706.23;;;24.32;100.00
43683;BME280;29285;52.128;21.060;2023-05-25T14:18:50;100707.37;;;24.18;100.00
43683;BME280;29285;52.128;21.060;2023-05-25T14:23:51;100708.17;;;24.08;100.00
43683;BME280;29285;52.128;21.060;2023-05-25T14:28:52;100703.55;;;24.40;100.00
43683;BME280;29285;52.128;21.060;2023-05-25T14:33:53;100703.48;;;24.88;100.00
43683;BME280;29285;52.128;21.060;2023-05-25T14:38:55;100707.09;;;25.22;100.00
43683;BME280;29285;52.128;21.060;2023-05-25T14:43:56;100705.54;;;25.34;100.00
43683;BME280;29285;52.128;21.060;2023-05-25T14:48:57;100704.86;;;25.23;100.00
43683;BME280;29285;52.128;21.060;2023-05-25T14:53:58;100704.62;;;25.22;100.00
43683;BME280;29285;52.128;21.060;2023-05-25T14:59:01;100693.37;;;25.20;100.00
43683;BME280;29285;52.128;21.060;2023-05-25T15:04:02;100691.52;;;25.46;100.00
43683;BME280;29285;52.128;21.060;2023-05-25T15:09:03;100692.19;;;25.54;100.00
43683;BME280;29285;52.128;21.060;2023-05-25T15:14:05;100698.77;;;25.54;100.00
43683;BME280;29285;52.128;21.060;2023-05-25T15:19:06;100701.02;;;25.55;100.00
43683;BME280;29285;52.128;21.060;2023-05-25T15:24:07;100702.77;;;25.50;100.00
43683;BME280;29285;52.128;21.060;2023-05-25T15:29:09;100697.70;;;25.64;100.00
43683;BME280;29285;52.128;21.060;2023-05-25T15:34:10;100694.04;;;25.78;100.00
43683;BME280;29285;52.128;21.060;2023-05-25T15:39:11;100687.97;;;25.56;100.00
43683;BME280;29285;52.128;21.060;2023-05-25T15:44:14;100688.73;;;25.43;100.00
43683;BME280;29285;52.128;21.060;2023-05-25T15:49:15;100683.20;;;25.56;100.00
43683;BME280;29285;52.128;21.060;2023-05-25T15:54:17;100691.36;;;25.56;100.00
43683;BME280;29285;52.128;21.060;2023-05-25T15:59:18;100691.89;;;25.56;100.00
43683;BME280;29285;52.128;21.060;2023-05-25T16:04:19;100688.84;;;25.42;100.00
43683;BME280;29285;52.128;21.060;2023-05-25T16:09:20;100687.18;;;25.30;100.00
43683;BME280;29285;52.128;21.060;2023-05-25T16:14:21;100680.34;;;25.24;100.00
43683;BME280;29285;52.128;21.060;2023-05-25T16:19:22;100677.51;;;25.31;100.00
43683;BME280;29285;52.128;21.060;2023-05-25T16:24:24;100675.88;;;25.51;100.00
43683;BME280;29285;52.128;21.060;2023-05-25T16:29:26;100679.71;;;25.69;100.00
43683;BME280;29285;52.128;21.060;2023-05-25T16:34:27;100682.94;;;25.71;100.00
43683;BME280;29285;52.128;21.060;2023-05-25T16:39:28;100686.69;;;25.71;100.00
43683;BME280;29285;52.128;21.060;2023-05-25T16:44:30;100682.73;;;25.69;100.00
43683;BME280;29285;52.128;21.060;2023-05-25T16:49:31;100683.54;;;25.75;100.00
43683;BME280;29285;52.128;21.060;2023-05-25T16:54:32;100679.88;;;25.70;100.00
43683;BME280;29285;52.128;21.060;2023-05-25T16:59:33;100672.21;;;25.53;100.00
43683;BME280;29285;52.128;21.060;2023-05-25T17:04:34;100671.17;;;25.40;100.00
43683;BME280;29285;52.128;21.060;2023-05-25T17:09:35;100677.27;;;25.37;100.00
43683;BME280;29285;52.128;21.060;2023-05-25T17:14:37;100677.52;;;25.31;100.00
43683;BME280;29285;52.128;21.060;2023-05-25T17:19:38;100682.38;;;25.23;100.00
43683;BME280;29285;52.128;21.060;2023-05-25T17:24:39;100687.75;;;25.12;100.00
43683;BME280;29285;52.128;21.060;2023-05-25T17:29:40;100688.16;;;24.99;100.00
43683;BME280;29285;52.128;21.060;2023-05-25T17:34:41;100693.80;;;24.76;100.00
43683;BME280;29285;52.128;21.060;2023-05-25T17:39:43;100695.27;;;24.39;100.00
43683;BME280;29285;52.128;21.060;2023-05-25T17:44:43;100687.77;;;23.95;100.00
43683;BME280;29285;52.128;21.060;2023-05-25T17:49:45;100691.01;;;23.72;100.00
43683;BME280;29285;52.128;21.060;2023-05-25T17:54:46;100691.65;;;23.54;100.00
43683;BME280;29285;52.128;21.060;2023-05-25T17:59:47;100691.17;;;23.37;100.00
43683;BME280;29285;52.128;21.060;2023-05-25T18:04:48;100693.55;;;23.21;100.00
43683;BME280;29285;52.128;21.060;2023-05-25T18:09:50;100693.58;;;23.06;100.00
43683;BME280;29285;52.128;21.060;2023-05-25T19:06:45;100739.80;;;21.76;100.00
43683;BME280;29285;52.128;21.060;2023-05-25T19:11:47;100742.34;;;21.58;100.00
43683;BME280;29285;52.128;21.060;2023-05-25T19:16:48;100750.35;;;21.41;100.00
43683;BME280;29285;52.128;21.060;2023-05-25T19:21:49;100752.29;;;21.28;100.00
43683;BME280;29285;52.128;21.060;2023-05-25T19:26:50;100752.25;;;21.19;100.00
43683;BME280;29285;52.128;21.060;2023-05-25T19:31:51;100750.83;;;21.13;100.00
43683;BME280;29285;52.128;21.060;2023-05-25T19:36:52;100749.61;;;21.09;100.00
43683;BME280;29285;52.128;21.060;2023-05-25T19:41:53;100741.86;;;21.06;100.00
43683;BME280;29285;52.128;21.060;2023-05-25T19:46:54;100742.15;;;21.00;100.00
43683;BME280;29285;52.128;21.060;2023-05-25T19:51:55;100751.40;;;20.92;100.00
43683;BME280;29285;52.128;21.060;2023-05-25T19:56:57;100749.52;;;20.80;100.00
43683;BME280;29285;52.128;21.060;2023-05-25T20:01:58;100747.32;;;20.78;100.00
43683;BME280;29285;52.128;21.060;2023-05-25T20:06:59;100746.15;;;20.73;100.00
43683;BME280;29285;52.128;21.060;2023-05-25T20:12:00;100745.11;;;20.66;100.00
43683;BME280;29285;52.128;21.060;2023-05-25T20:17:02;100749.88;;;20.59;100.00
43683;BME280;29285;52.128;21.060;2023-05-25T20:22:03;100749.12;;;20.57;100.00
43683;BME280;29285;52.128;21.060;2023-05-25T20:27:07;100751.38;;;20.61;100.00
43683;BME280;29285;52.128;21.060;2023-05-25T20:32:08;100750.71;;;20.57;100.00
43683;BME280;29285;52.128;21.060;2023-05-25T20:37:10;100753.20;;;20.53;100.00
43683;BME280;29285;52.128;21.060;2023-05-25T20:42:11;100751.31;;;20.52;100.00
43683;BME280;29285;52.128;21.060;2023-05-25T20:47:13;100748.11;;;20.49;100.00
43683;BME280;29285;52.128;21.060;2023-05-25T20:52:15;100751.30;;;20.38;100.00
43683;BME280;29285;52.128;21.060;2023-05-25T20:57:16;100758.78;;;20.36;100.00
43683;BME280;29285;52.128;21.060;2023-05-25T21:02:17;100767.03;;;20.37;100.00
43683;BME280;29285;52.128;21.060;2023-05-25T21:07:18;100763.27;;;20.28;100.00
43683;BME280;29285;52.128;21.060;2023-05-25T21:12:19;100763.20;;;20.18;100.00
43683;BME280;29285;52.128;21.060;2023-05-25T21:17:21;100764.74;;;20.16;100.00
43683;BME280;29285;52.128;21.060;2023-05-25T21:22:22;100768.05;;;20.09;100.00
43683;BME280;29285;52.128;21.060;2023-05-25T21:27:23;100773.00;;;19.97;100.00
43683;BME280;29285;52.128;21.060;2023-05-25T21:32:24;100770.98;;;19.84;100.00
43683;BME280;29285;52.128;21.060;2023-05-25T21:37:25;100777.98;;;19.77;100.00
43683;BME280;29285;52.128;21.060;2023-05-25T21:42:28;100780.07;;;19.67;100.00
43683;BME280;29285;52.128;21.060;2023-05-25T21:47:29;100784.34;;;19.58;100.00
43683;BME280;29285;52.128;21.060;2023-05-25T21:52:30;100791.52;;;19.47;100.00
43683;BME280;29285;52.128;21.060;2023-05-25T21:57:31;100792.23;;;19.43;100.00
43683;BME280;29285;52.128;21.060;2023-05-25T22:02:32;100790.58;;;19.45;100.00
43683;BME280;29285;52.128;21.060;2023-05-25T22:07:33;100788.35;;;19.59;100.00
43683;BME280;29285;52.128;21.060;2023-05-25T22:12:35;100791.80;;;19.68;100.00
43683;BME280;29285;52.128;21.060;2023-05-25T22:17:36;100798.83;;;19.76;100.00
43683;BME280;29285;52.128;21.060;2023-05-25T22:22:38;100796.00;;;19.80;100.00
43683;BME280;29285;52.128;21.060;2023-05-25T22:27:39;100795.23;;;19.81;100.00
43683;BME280;29285;52.128;21.060;2023-05-25T22:32:40;100797.27;;;19.83;100.00
43683;BME280;29285;52.128;21.060;2023-05-25T22:37:41;100804.63;;;19.80;100.00
43683;BME280;29285;52.128;21.060;2023-05-25T22:42:43;100809.48;;;19.88;100.00
43683;BME280;29285;52.128;21.060;2023-05-25T22:47:49;100811.99;;;19.88;100.00
43683;BME280;29285;52.128;21.060;2023-05-25T22:52:51;100813.35;;;19.82;100.00
43683;BME280;29285;52.128;21.060;2023-05-25T22:57:52;100812.94;;;19.86;100.00
43683;BME280;29285;52.128;21.060;2023-05-25T23:02:53;100808.19;;;19.94;100.00
43683;BME280;29285;52.128;21.060;2023-05-25T23:07:54;100802.08;;;20.01;100.00
43683;BME280;29285;52.128;21.060;2023-05-25T23:12:55;100805.77;;;20.08;100.00
43683;BME280;29285;52.128;21.060;2023-05-25T23:17:56;100815.80;;;20.08;100.00
43683;BME280;29285;52.128;21.060;2023-05-25T23:22:57;100821.56;;;19.94;100.00
43683;BME280;29285;52.128;21.060;2023-05-25T23:27:59;100821.23;;;19.82;100.00
43683;BME280;29285;52.128;21.060;2023-05-25T23:33:00;100822.70;;;19.70;100.00
43683;BME280;29285;52.128;21.060;2023-05-25T23:38:01;100827.48;;;19.58;100.00
43683;BME280;29285;52.128;21.060;2023-05-25T23:43:02;100824.63;;;19.58;100.00
43683;BME280;29285;52.128;21.060;2023-05-25T23:48:04;100821.23;;;19.63;100.00
43683;BME280;29285;52.128;21.060;2023-05-25T23:53:05;100821.40;;;19.67;100.00
43683;BME280;29285;52.128;21.060;2023-05-25T23:58:06;100827.04;;;19.75;100.00
